createdAt,value
2022-12-07T00:03:21.080Z,17.2
2022-12-07T00:08:23.885Z,17.5
2022-12-07T00:13:26.307Z,16.1
2022-12-07T00:18:28.352Z,16.2
2022-12-07T00:23:30.476Z,16.3
2022-12-07T00:28:32.731Z,15.1
2022-12-07T00:33:34.852Z,15.2
2022-12-07T00:38:38.040Z,15.7
2022-12-07T00:43:40.372Z,15.3
2022-12-07T00:48:42.335Z,15.7
2022-12-07T00:53:44.457Z,16.2
2022-12-07T00:58:46.711Z,15.9
2022-12-07T01:03:49.227Z,16.3
2022-12-07T01:08:51.390Z,15.3
2022-12-07T01:13:53.468Z,15.2
2022-12-07T01:18:56.399Z,14.1
2022-12-07T01:23:58.454Z,13.6
2022-12-07T01:29:00.674Z,13.4
2022-12-07T01:34:03.263Z,13.4
2022-12-07T01:39:05.410Z,14
2022-12-07T01:44:07.813Z,13.9
2022-12-07T01:49:09.873Z,14
2022-12-07T01:54:11.905Z,13.4
2022-12-07T01:59:14.132Z,13.1
2022-12-07T02:04:16.394Z,13.4
2022-12-07T02:09:18.426Z,13.6
2022-12-07T02:14:20.649Z,13.4
2022-12-07T02:19:22.896Z,13.1
2022-12-07T02:24:24.873Z,13.9
2022-12-07T02:29:26.823Z,13.7
2022-12-07T02:34:28.825Z,13.4
2022-12-07T02:39:30.841Z,13.4
2022-12-07T02:44:35.559Z,13.4
2022-12-07T02:49:37.777Z,13.1
2022-12-07T02:54:40.017Z,12.4
2022-12-07T02:59:42.101Z,12.3
2022-12-07T03:04:44.373Z,12.2
2022-12-07T03:09:46.579Z,12.1
2022-12-07T03:14:48.859Z,12
2022-12-07T03:19:51.359Z,11.5
2022-12-07T03:24:53.920Z,11.4
2022-12-07T03:29:55.990Z,11.6
2022-12-07T03:34:58.193Z,11.4
2022-12-07T03:40:01.323Z,11.6
2022-12-07T03:45:04.589Z,11.5
2022-12-07T03:50:07.141Z,10.9
2022-12-07T03:55:09.841Z,10.6
2022-12-07T04:00:12.908Z,9.7
2022-12-07T04:05:15.519Z,9.4
2022-12-07T04:10:17.542Z,15.1
2022-12-07T04:15:17.974Z,9.6
2022-12-07T04:20:20.893Z,9.9
2022-12-07T04:25:24.164Z,10.1
2022-12-07T04:30:26.484Z,10
2022-12-07T04:35:28.940Z,10.2
2022-12-07T04:40:31.372Z,10.4
2022-12-07T04:45:33.424Z,10.5
2022-12-07T04:50:44.654Z,10.7
2022-12-07T04:55:38.304Z,10.3
2022-12-07T05:00:43.345Z,12.3
2022-12-07T05:05:46.116Z,10.9
2022-12-07T05:10:48.211Z,10.4
2022-12-07T05:15:54.385Z,10.5
2022-12-07T05:20:56.876Z,16.2
2022-12-07T05:25:57.222Z,11.6
2022-12-07T05:31:01.236Z,11.6
2022-12-07T05:36:03.378Z,12.1
2022-12-07T05:41:05.823Z,12.6
2022-12-07T05:46:08.259Z,12.8
2022-12-07T05:51:10.501Z,13.2
2022-12-07T05:56:12.634Z,12.9
2022-12-07T06:01:14.611Z,13.5
2022-12-07T06:06:17.008Z,13.8
2022-12-07T06:11:19.302Z,13.2
2022-12-07T06:16:21.564Z,14.3
2022-12-07T06:21:24.384Z,15.7
2022-12-07T06:26:26.538Z,15.7
2022-12-07T06:31:28.818Z,14.8
2022-12-07T06:36:31.009Z,14.5
2022-12-07T06:41:33.249Z,14.4
2022-12-07T06:46:35.671Z,13.2
2022-12-07T06:51:37.825Z,12.4
2022-12-07T06:56:39.696Z,11.9
2022-12-07T07:01:41.879Z,11.2
2022-12-07T07:06:44.413Z,11.4
2022-12-07T07:11:46.436Z,8.5
2022-12-07T07:16:48.654Z,8.3
2022-12-07T07:21:51.065Z,8.2
2022-12-07T07:26:53.017Z,8.5
2022-12-07T07:31:55.025Z,8.2
2022-12-07T07:37:00.204Z,8.8
2022-12-07T07:42:02.268Z,8.5
2022-12-07T07:47:04.241Z,8.5
2022-12-07T07:52:06.199Z,7.6
2022-12-07T07:57:08.274Z,7.8
2022-12-07T08:02:10.148Z,8.2
2022-12-07T08:07:12.179Z,8.2
2022-12-07T08:12:14.628Z,9.7
2022-12-07T08:17:17.049Z,20.3
2022-12-07T08:22:17.558Z,7.8
2022-12-07T08:27:19.463Z,6.8
2022-12-07T08:32:21.619Z,6.8
2022-12-07T08:37:24.764Z,6.7
2022-12-07T08:42:26.835Z,7
2022-12-07T08:47:28.875Z,7.4
2022-12-07T08:52:30.831Z,7.3
2022-12-07T08:57:33.312Z,7.6
2022-12-07T09:02:35.969Z,6.8
2022-12-07T09:07:38.162Z,10.2
2022-12-07T09:12:38.569Z,6.7
2022-12-07T09:17:40.984Z,6.6
2022-12-07T09:22:42.851Z,6.1
2022-12-07T09:27:45.199Z,5.9
2022-12-07T09:32:47.392Z,13.7
2022-12-07T09:37:47.760Z,7
2022-12-07T09:42:49.850Z,6.7
2022-12-07T09:47:52.018Z,6.6
2022-12-07T09:52:54.084Z,6.5
2022-12-07T09:57:56.206Z,6.3
2022-12-07T10:02:58.254Z,6.4
2022-12-07T10:08:00.421Z,5.6
2022-12-07T10:13:02.855Z,5
2022-12-07T10:18:05.175Z,5.4
2022-12-07T10:23:07.618Z,5.4
2022-12-07T10:28:09.736Z,5.3
2022-12-07T10:33:11.643Z,6
2022-12-07T10:38:13.868Z,5.9
2022-12-07T10:43:16.282Z,6.1
2022-12-07T10:48:18.272Z,6.3
2022-12-07T10:53:20.204Z,6.1
2022-12-07T10:58:22.185Z,6.5
2022-12-07T11:03:26.245Z,7.2
2022-12-07T11:08:28.940Z,7.1
2022-12-07T11:13:34.003Z,10.4
2022-12-07T11:18:35.937Z,6.4
2022-12-07T11:23:37.846Z,5.7
2022-12-07T11:28:39.826Z,5
2022-12-07T11:33:41.763Z,6.5
2022-12-07T11:38:42.125Z,3.9
2022-12-07T11:43:44.439Z,4.6
2022-12-07T11:48:46.438Z,4.6
2022-12-07T11:53:48.329Z,4.7
2022-12-07T11:58:50.247Z,4.4
2022-12-07T12:03:54.533Z,4.2
2022-12-07T12:09:44.756Z,4.7
2022-12-07T12:19:05.973Z,4
2022-12-07T12:24:08.002Z,4
2022-12-07T12:29:09.869Z,4.4
2022-12-07T12:34:11.783Z,4.4
2022-12-07T12:39:13.951Z,4.2
2022-12-07T12:44:16.186Z,4.4
2022-12-07T12:49:18.120Z,4.5
2022-12-07T12:54:20.134Z,4.1
2022-12-07T12:59:22.052Z,6.3
2022-12-07T13:04:22.429Z,5.5
2022-12-07T13:09:24.425Z,6.1
2022-12-07T13:14:33.709Z,5.2
2022-12-07T13:19:35.923Z,5.1
2022-12-07T13:24:38.257Z,5.1
2022-12-07T13:29:40.263Z,33.7
2022-12-07T13:34:42.317Z,6.9
2022-12-07T13:39:44.333Z,6.6
2022-12-07T13:44:46.386Z,6.5
2022-12-07T13:49:54.317Z,5.7
2022-12-07T13:54:56.554Z,5.7
2022-12-07T13:59:58.898Z,5.4
2022-12-07T14:05:01.508Z,5.7
2022-12-07T14:10:04.662Z,5.5
2022-12-07T14:15:07.311Z,6.6
2022-12-07T14:20:10.578Z,7.2
2022-12-07T14:25:13.075Z,6.8
2022-12-07T14:30:15.396Z,9.6
2022-12-07T14:35:15.794Z,6.1
2022-12-07T14:40:17.879Z,6.1
2022-12-07T14:45:21.779Z,7.5
2022-12-07T14:50:24.052Z,8.8
2022-12-07T14:55:26.142Z,7.8
2022-12-07T15:00:28.252Z,8.2
2022-12-07T15:05:30.358Z,8.2
2022-12-07T15:10:32.873Z,8.6
2022-12-07T15:15:35.016Z,8.5
2022-12-07T15:20:37.178Z,9.9
2022-12-07T15:25:39.183Z,9.7
2022-12-07T15:30:41.568Z,9.6
2022-12-07T15:35:43.642Z,11.1
2022-12-07T15:40:45.747Z,11
2022-12-07T15:45:48.007Z,11.2
2022-12-07T15:50:50.529Z,10.8
2022-12-07T15:55:53.397Z,11
2022-12-07T16:00:55.400Z,12.4
2022-12-07T16:05:57.422Z,11.9
2022-12-07T16:10:59.431Z,10.6
2022-12-07T16:16:02.296Z,11.4
2022-12-07T16:21:04.515Z,11.4
2022-12-07T16:26:06.473Z,13.3
2022-12-07T16:31:09.049Z,14.8
2022-12-07T16:36:11.407Z,12.7
2022-12-07T16:41:13.361Z,11.7
2022-12-07T16:46:15.658Z,11.4
2022-12-07T16:51:18.416Z,11.9
2022-12-07T16:56:20.644Z,11.6
2022-12-07T17:01:22.811Z,11.7
2022-12-07T17:02:36.408Z,13.4
2022-12-07T17:07:38.608Z,12
2022-12-07T17:12:40.809Z,12.4
2022-12-07T17:17:42.728Z,12.6
2022-12-07T17:22:44.853Z,11.6
2022-12-07T17:27:47.795Z,11.1
2022-12-07T17:32:50.348Z,11
2022-12-07T17:37:52.722Z,10.5
2022-12-07T17:42:54.646Z,10.5
2022-12-07T17:47:56.794Z,10.8
2022-12-07T17:52:59.175Z,11.1
2022-12-07T17:58:01.608Z,10.4
2022-12-07T18:03:04.004Z,10.4
2022-12-07T18:08:06.357Z,11.1
2022-12-07T18:13:08.550Z,13.2
2022-12-07T18:18:10.712Z,13.9
2022-12-07T18:23:12.932Z,13.9
2022-12-07T18:28:14.985Z,13.4
2022-12-07T18:33:16.920Z,14.1
2022-12-07T18:38:19.181Z,15.5
2022-12-07T18:43:21.254Z,15.5
2022-12-07T18:48:23.257Z,16.9
2022-12-07T18:53:25.526Z,17.6
2022-12-07T18:58:27.558Z,15.3
2022-12-07T19:03:34.362Z,15
2022-12-07T19:08:36.515Z,15
2022-12-07T19:13:39.145Z,16.1
2022-12-07T19:18:42.557Z,24
2022-12-07T19:23:44.667Z,31.4
2022-12-07T19:28:46.729Z,17.6
2022-12-07T19:33:50.010Z,14.4
2022-12-07T19:38:51.990Z,15.9
2022-12-07T19:43:53.993Z,17.1
2022-12-07T19:48:56.215Z,16.2
2022-12-07T19:53:58.532Z,16.8
2022-12-07T19:59:00.653Z,16.5
2022-12-07T20:04:02.830Z,15.9
2022-12-07T20:09:04.886Z,17.9
2022-12-07T20:14:06.819Z,17.5
2022-12-07T20:19:08.748Z,17.2
2022-12-07T20:24:10.776Z,16.7
2022-12-07T20:29:18.762Z,16
2022-12-07T20:34:20.932Z,15.9
2022-12-07T20:39:22.962Z,16.4
2022-12-07T20:44:25.334Z,16.7
2022-12-07T20:49:27.580Z,18
2022-12-07T20:54:29.569Z,18.7
2022-12-07T20:59:36.573Z,19.1
2022-12-07T21:04:33.283Z,18.4
2022-12-07T21:09:35.256Z,25.6
2022-12-07T21:14:37.270Z,15.5
2022-12-07T21:19:39.336Z,15.6
2022-12-07T21:24:41.580Z,16.3
2022-12-07T21:29:48.685Z,16.6
2022-12-07T21:34:45.717Z,16
2022-12-07T21:39:47.756Z,18.1
2022-12-07T21:44:49.807Z,17.9
2022-12-07T21:49:52.227Z,18
2022-12-07T21:54:54.426Z,15.7
2022-12-07T21:59:56.395Z,15.6
2022-12-07T22:04:58.501Z,14.8
2022-12-07T22:10:00.615Z,14.5
2022-12-07T22:15:03.692Z,21.7
2022-12-07T22:20:04.213Z,14.1
2022-12-07T22:25:06.731Z,13.9
2022-12-07T22:30:08.919Z,15.3
2022-12-07T22:35:10.951Z,14.1
2022-12-07T22:40:12.970Z,13.6
2022-12-07T22:45:15.147Z,12.6
2022-12-07T22:50:17.251Z,21
2022-12-07T22:55:19.243Z,13.5
2022-12-07T23:00:21.283Z,16.4
2022-12-07T23:05:23.236Z,16.1
2022-12-07T23:10:25.209Z,13.4
2022-12-07T23:15:27.194Z,12.2
2022-12-07T23:20:29.462Z,12.6
2022-12-07T23:25:31.463Z,12
2022-12-07T23:30:33.372Z,12.5
2022-12-07T23:35:35.497Z,12
2022-12-07T23:40:37.543Z,12.6
2022-12-07T23:45:39.903Z,11.5
2022-12-07T23:50:42.018Z,11.7
2022-12-07T23:55:43.973Z,12.9
